Lynn Haven, Florida
Current Conditions -  °F | °C
As of 5:53 PM on Monday 24 Nov 2014 (Local Time) from KECP Reporting Station
Light Rain Light Rain  
Wind Chill: 64°   Ceiling: 12000
Heat Index: 64°   Visibility: 7mi
Dew Point: 60°   Wind: 5mph
Humidity: 87%   Direction: 120°ESE
Pressure: 29.89"   Gusts: NA
Location:  30.24°N, 85.65°W
Report Text: KECP 242353Z 12004KT 7SM -RA BR SCT025 SCT095 BKN120 18/16 A2989 RMK AO2 RAB2254 PRESFR SLP133 P0000 60000 T01780156 10239 20178 51018 $
Loading
Personal Weather Stations






























Interactive Weather Map New forecast layout! Learn more

10-Day Weather Forecast

Advertisements
Track Severe Weather on mobile